ADDS METAR Data INFO
IDs: Format: Raw Decoded Include TAF

Data at: 0708 UTC 19 Oct 2017

KCCA 190655Z AUTO 00000KT 9SM CLR 08/08 A3018 RMK AO2
KCCA 190635Z AUTO 00000KT 8SM CLR 08/07 A3017 RMK AO2
KCCA 190615Z AUTO 00000KT 9SM CLR 08/08 A3017 RMK AO2
KCCA 190555Z AUTO 00000KT 8SM CLR 09/08 A3017 RMK AO2
KCCA 190455Z AUTO 00000KT 10SM CLR 09/08 A3017 RMK AO2
KCCA 190435Z AUTO 00000KT 9SM CLR 09/09 A3017 RMK AO2
KCCA 190415Z AUTO 00000KT 10SM CLR 10/09 A3018 RMK AO2
KCCA 190355Z AUTO 00000KT 10SM CLR 10/09 A3018 RMK AO2
KCCA 190335Z AUTO 00000KT 10SM CLR 10/10 A3018 RMK AO2
KCCA 190315Z AUTO 00000KT 10SM CLR 10/10 A3017 RMK AO2
KCCA 190255Z AUTO 00000KT 10SM CLR 11/10 A3017 RMK AO2
KCCA 190235Z AUTO 00000KT 10SM CLR 11/10 A3017 RMK AO2
KCCA 190215Z AUTO 00000KT 10SM CLR 11/11 A3017 RMK AO2
KCCA 190155Z AUTO 00000KT 10SM CLR 12/11 A3017 RMK AO2
KCCA 190135Z AUTO 00000KT 10SM CLR 12/11 A3017 RMK AO2
KCCA 190115Z AUTO 00000KT 10SM CLR 13/11 A3016 RMK AO2
KCCA 190055Z AUTO 00000KT 10SM CLR 14/12 A3016 RMK AO2
KCCA 190035Z AUTO 00000KT 10SM CLR 14/12 A3016 RMK AO2
KCCA 190015Z AUTO 00000KT 10SM CLR 16/12 A3015 RMK AO2
KCCA 182355Z AUTO 00000KT 10SM CLR 17/12 A3014 RMK AO2
KCCA 182335Z AUTO 00000KT 10SM CLR 18/13 A3014 RMK AO2
KCCA 182315Z AUTO 00000KT 10SM CLR 22/10 A3014 RMK AO2
KCCA 182255Z AUTO 17004KT 10SM CLR 23/09 A3014 RMK AO2
KCCA 182235Z AUTO VRB04KT 10SM CLR 24/09 A3014 RMK AO2
KCCA 182215Z AUTO 00000KT 9SM CLR 24/10 A3014 RMK AO2
KCCA 182155Z AUTO 16005KT 10SM CLR 24/10 A3014 RMK AO2
KCCA 182135Z AUTO 17006KT 9SM CLR 24/09 A3013 RMK AO2
KCCA 182115Z AUTO 15005KT 10SM CLR 24/09 A3013 RMK AO2
KCCA 182055Z AUTO VRB04G10KT 10SM CLR 24/09 A3014 RMK AO2
KCCA 182035Z AUTO 14004KT 10SM CLR 24/09 A3014 RMK AO2
KCCA 182015Z AUTO 15007KT 9SM CLR 24/09 A3014 RMK AO2
KCCA 181955Z AUTO 22006KT 9SM CLR 24/08 A3015 RMK AO2
KCCA 181935Z AUTO VRB06KT 10SM CLR 24/09 A3015 RMK AO2
KCCA 181915Z AUTO VRB04G10KT 10SM CLR 23/10 A3015 RMK AO2
KCCA 181855Z AUTO VRB06G11KT 10SM CLR 23/10 A3016 RMK AO2
KCCA 181835Z AUTO 22006KT 10SM CLR 23/10 A3017 RMK AO2
KCCA 181815Z AUTO 16004KT 10SM CLR 22/10 A3018 RMK AO2
KCCA 181755Z AUTO VRB06KT 10SM CLR 22/10 A3019 RMK AO2
KCCA 181735Z AUTO 16007KT 140V210 10SM CLR 22/10 A3020 RMK AO2
KCCA 181715Z AUTO 14009KT 9SM CLR 21/10 A3021 RMK AO2
KCCA 181655Z AUTO 20009KT 10SM CLR 21/10 A3022 RMK AO2
KCCA 181635Z AUTO 00000KT 9SM CLR 19/11 A3023 RMK AO2
KCCA 181615Z AUTO 00000KT 10SM CLR 17/10 A3024 RMK AO2
KCCA 181555Z AUTO 00000KT 10SM CLR 16/10 A3024 RMK AO2
KCCA 181535Z AUTO 00000KT 10SM CLR 14/10 A3025 RMK AO2
KCCA 181515Z AUTO 00000KT 10SM CLR 12/09 A3025 RMK AO2
KCCA 181455Z AUTO 00000KT 10SM CLR 10/08 A3025 RMK AO2
KCCA 181435Z AUTO 00000KT 9SM CLR 09/07 A3025 RMK AO2
KCCA 181415Z AUTO 00000KT 10SM CLR 07/06 A3024 RMK AO2
KCCA 181355Z AUTO 00000KT 10SM CLR 06/05 A3024 RMK AO2
KCCA 181335Z AUTO 00000KT 10SM CLR 05/04 A3024 RMK AO2
KCCA 181315Z AUTO 00000KT 10SM CLR 04/03 A3024 RMK AO2
KCCA 181255Z AUTO 00000KT 9SM CLR 03/03 A3023 RMK AO2
KCCA 181235Z AUTO 00000KT 10SM CLR 03/03 A3023 RMK AO2
KCCA 181215Z AUTO 00000KT 9SM CLR 03/03 A3023 RMK AO2
KCCA 181155Z AUTO 00000KT 8SM CLR 03/03 A3023 RMK AO2
KCCA 181135Z AUTO 00000KT 10SM FEW002 FEW025 03/03 A3023 RMK AO2
KCCA 181115Z AUTO 00000KT 7SM BKN002 SCT025 03/03 A3023 RMK AO2
KCCA 181055Z AUTO 00000KT 10SM BKN002 03/03 A3023 RMK AO2
KCCA 181035Z AUTO 00000KT 9SM BKN002 03/03 A3023 RMK AO2
KCCA 181015Z AUTO 00000KT 9SM SCT002 03/03 A3022 RMK AO2
KCCA 180955Z AUTO 00000KT 8SM BKN002 03/03 A3022 RMK AO2
KCCA 180935Z AUTO 00000KT 8SM OVC002 03/03 A3022 RMK AO2
KCCA 180915Z AUTO 00000KT 9SM OVC002 04/03 A3022 RMK AO2
KCCA 180855Z AUTO 00000KT 6SM BR BKN002 04/03 A3022 RMK AO2
KCCA 180835Z AUTO 00000KT 6SM BR BKN001 04/04 A3022 RMK AO2
KCCA 180815Z AUTO 00000KT 9SM FEW002 04/04 A3023 RMK AO2
KCCA 180755Z AUTO 00000KT 8SM FEW002 04/04 A3023 RMK AO2
KCCA 180735Z AUTO 00000KT 10SM BKN002 04/04 A3023 RMK AO2
KCCA 180715Z AUTO 00000KT 10SM SCT002 SCT030 04/04 A3023 RMK AO2
KCCA 180655Z AUTO 00000KT 6SM BR FEW002 FEW031 05/04 A3022 RMK AO2
KCCA 180635Z AUTO 00000KT 10SM SCT025 05/05 A3022 RMK AO2
KCCA 180615Z AUTO 00000KT 9SM OVC024 05/05 A3023 RMK AO2
KCCA 180555Z AUTO 00000KT 9SM OVC022 05/05 A3023 RMK AO2
KCCA 180535Z AUTO 00000KT 10SM BKN020 BKN028 05/05 A3023 RMK AO2
KCCA 180515Z AUTO 00000KT 10SM FEW022 SCT028 06/05 A3023 RMK AO2
KCCA 180455Z AUTO 00000KT 8SM SCT023 SCT029 06/06 A3023 RMK AO2
KCCA 180435Z AUTO 00000KT 8SM FEW025 FEW031 06/06 A3024 RMK AO2
KCCA 180415Z AUTO 00000KT 9SM CLR 06/06 A3024 RMK AO2
KCCA 180355Z AUTO 00000KT 9SM SCT014 07/06 A3024 RMK AO2
KCCA 180335Z AUTO 00000KT 10SM FEW013 07/07 A3024 RMK AO2
KCCA 180315Z AUTO 00000KT 10SM CLR 07/07 A3024 RMK AO2
KCCA 180255Z AUTO 00000KT 10SM CLR 08/07 A3024 RMK AO2
KCCA 180235Z AUTO 00000KT 10SM CLR 08/07 A3023 RMK AO2
KCCA 180215Z AUTO 00000KT 10SM CLR 08/08 A3023 RMK AO2
KCCA 180155Z AUTO 00000KT 10SM CLR 09/08 A3023 RMK AO2
KCCA 180135Z AUTO 00000KT 10SM CLR 09/08 A3023 RMK AO2
KCCA 180115Z AUTO 00000KT 10SM CLR 10/08 A3022 RMK AO2
KCCA 180055Z AUTO 00000KT 10SM CLR 11/08 A3022 RMK AO2
KCCA 180035Z AUTO 00000KT 10SM CLR 11/09 A3021 RMK AO2
KCCA 180015Z AUTO 00000KT 10SM CLR 12/09 A3021 RMK AO2
KCCA 172355Z AUTO 00000KT 10SM CLR 14/10 A3020 RMK AO2
KCCA 172335Z AUTO 00000KT 10SM CLR 16/08 A3020 RMK AO2
KCCA 172315Z AUTO 00000KT 10SM CLR 19/08 A3020 RMK AO2
KCCA 172255Z AUTO 00000KT 10SM CLR 20/05 A3020 RMK AO2
KCCA 172235Z AUTO 16003KT 10SM CLR 21/04 A3019 RMK AO2
KCCA 172215Z AUTO 14005KT 10SM CLR 21/04 A3020 RMK AO2
KCCA 172155Z AUTO 00000KT 10SM CLR 21/05 A3020 RMK AO2
KCCA 172135Z AUTO 21003KT 10SM CLR 21/05 A3021 RMK AO2
KCCA 172115Z AUTO VRB03KT 10SM CLR 22/05 A3021 RMK AO2
KCCA 172055Z AUTO 14004KT 10SM CLR 22/05 A3022 RMK AO2
KCCA 172035Z AUTO 17003KT 9SM CLR 21/05 A3022 RMK AO2
KCCA 172015Z AUTO VRB03KT 10SM CLR 21/05 A3023 RMK AO2
KCCA 171955Z AUTO 00000KT 10SM CLR 21/04 A3024 RMK AO2
KCCA 171935Z AUTO VRB04KT 10SM CLR 21/05 A3025 RMK AO2
KCCA 171915Z AUTO 00000KT 10SM CLR 20/05 A3026 RMK AO2